createdAt,value
2019-03-22T00:02:31.863Z,100.00
2019-03-22T00:05:36.302Z,99.40
2019-03-22T00:08:40.694Z,98.92
2019-03-22T00:11:45.059Z,98.95
2019-03-22T00:14:49.423Z,99.76
2019-03-22T00:17:53.873Z,99.82
2019-03-22T00:20:58.249Z,99.48
2019-03-22T00:24:02.602Z,98.87
2019-03-22T00:27:15.960Z,98.91
2019-03-22T00:30:13.187Z,99.53
2019-03-22T00:33:17.555Z,99.56
2019-03-22T00:36:22.002Z,99.69
2019-03-22T00:39:26.349Z,99.34
2019-03-22T00:42:30.737Z,99.75
2019-03-22T00:45:35.110Z,99.95
2019-03-22T00:48:39.494Z,100.00
2019-03-22T00:51:43.865Z,100.00
2019-03-22T00:54:48.256Z,99.63
2019-03-22T00:57:52.603Z,100.00
2019-03-22T01:00:56.952Z,100.00
2019-03-22T01:04:01.410Z,100.00
2019-03-22T01:07:05.840Z,100.00
2019-03-22T01:10:10.807Z,98.76
2019-03-22T01:13:15.231Z,99.42
2019-03-22T01:16:19.615Z,100.00
2019-03-22T01:19:23.980Z,99.86
2019-03-22T01:22:28.332Z,100.00
2019-03-22T01:25:32.712Z,99.43
2019-03-22T01:28:37.120Z,99.70
2019-03-22T01:31:41.737Z,99.90
2019-03-22T01:34:46.102Z,99.38
2019-03-22T01:37:50.470Z,99.29
2019-03-22T01:40:54.859Z,99.83
2019-03-22T01:43:59.220Z,100.00
2019-03-22T01:47:03.675Z,100.00
2019-03-22T01:50:09.867Z,100.00
2019-03-22T01:53:14.198Z,100.00
2019-03-22T01:56:18.572Z,100.00
2019-03-22T01:59:22.946Z,100.00
2019-03-22T02:02:27.463Z,100.00
2019-03-22T02:05:31.839Z,100.00
2019-03-22T02:08:36.374Z,100.00
2019-03-22T02:11:40.733Z,99.12
2019-03-22T02:14:45.085Z,98.80
2019-03-22T02:17:49.435Z,99.36
2019-03-22T02:20:53.797Z,100.00
2019-03-22T02:23:58.132Z,99.49
2019-03-22T02:27:02.513Z,99.86
2019-03-22T02:30:07.805Z,99.60
2019-03-22T02:33:12.258Z,99.34
2019-03-22T02:36:16.611Z,98.93
2019-03-22T02:39:21.099Z,98.44
2019-03-22T02:42:25.514Z,99.47
2019-03-22T02:45:29.925Z,99.06
2019-03-22T02:48:34.308Z,99.46
2019-03-22T02:51:38.658Z,99.75
2019-03-22T02:54:43.007Z,100.00
2019-03-22T02:57:47.422Z,100.00
2019-03-22T03:00:51.936Z,100.00
2019-03-22T03:03:56.298Z,100.00
2019-03-22T03:07:00.758Z,100.00
2019-03-22T03:10:07.334Z,100.00
2019-03-22T03:13:11.730Z,100.00
2019-03-22T03:16:16.172Z,100.00
2019-03-22T03:19:20.616Z,100.00
2019-03-22T03:22:24.994Z,99.18
2019-03-22T03:25:29.401Z,99.00
2019-03-22T03:28:36.984Z,99.20
2019-03-22T03:31:39.887Z,99.68
2019-03-22T03:34:44.259Z,100.00
2019-03-22T03:37:48.702Z,100.00
2019-03-22T03:40:53.176Z,100.00
2019-03-22T03:43:57.737Z,100.00
2019-03-22T03:47:02.133Z,100.00
2019-03-22T03:50:07.975Z,100.00
2019-03-22T03:53:12.337Z,100.00
2019-03-22T03:56:21.300Z,100.00
2019-03-22T03:59:27.579Z,100.00
2019-03-22T04:02:33.209Z,100.00
2019-03-22T04:05:40.094Z,100.00
2019-03-22T04:08:45.646Z,100.00
2019-03-22T04:11:50.830Z,100.00
2019-03-22T04:14:58.754Z,100.00
2019-03-22T04:18:04.811Z,100.00
2019-03-22T04:21:09.579Z,100.00
2019-03-22T04:24:15.853Z,100.00
2019-03-22T04:27:24.227Z,100.00
2019-03-22T04:30:33.305Z,100.00
2019-03-22T04:33:44.058Z,100.00
2019-03-22T04:36:49.576Z,100.00
2019-03-22T04:39:55.607Z,100.00
2019-03-22T04:43:05.456Z,100.00
2019-03-22T04:46:15.032Z,100.00
2019-03-22T04:49:26.930Z,100.00
2019-03-22T04:52:36.612Z,100.00
2019-03-22T04:55:44.241Z,100.00
2019-03-22T04:58:50.431Z,100.00
2019-03-22T05:01:56.456Z,100.00
2019-03-22T05:05:01.080Z,100.00
2019-03-22T05:08:06.310Z,100.00
2019-03-22T05:11:14.980Z,100.00
2019-03-22T05:14:56.764Z,100.00
2019-03-22T05:18:04.216Z,100.00
2019-03-22T05:21:10.972Z,100.00
2019-03-22T05:24:18.408Z,100.00
2019-03-22T05:27:23.426Z,100.00
2019-03-22T05:31:07.446Z,100.00
2019-03-22T05:34:11.834Z,100.00
2019-03-22T05:37:16.275Z,100.00
2019-03-22T05:40:20.652Z,100.00
2019-03-22T05:43:24.981Z,100.00
2019-03-22T05:46:29.332Z,100.00
2019-03-22T05:49:33.768Z,100.00
2019-03-22T05:52:38.133Z,100.00
2019-03-22T05:55:42.575Z,100.00
2019-03-22T05:58:46.957Z,100.00
2019-03-22T06:01:51.380Z,100.00
2019-03-22T06:04:55.758Z,100.00
2019-03-22T06:08:00.120Z,100.00
2019-03-22T06:11:04.567Z,100.00
2019-03-22T06:14:08.923Z,100.00
2019-03-22T06:17:13.300Z,100.00
2019-03-22T06:20:17.802Z,100.00
2019-03-22T06:23:22.167Z,100.00
2019-03-22T06:26:26.506Z,100.00
2019-03-22T06:29:30.868Z,100.00
2019-03-22T06:32:35.302Z,100.00
2019-03-22T06:35:39.671Z,100.00
2019-03-22T06:38:44.026Z,100.00
2019-03-22T06:41:48.484Z,100.00
2019-03-22T06:44:52.842Z,100.00
2019-03-22T06:47:57.288Z,100.00
2019-03-22T06:51:01.671Z,100.00
2019-03-22T06:54:06.511Z,100.00
2019-03-22T06:57:10.857Z,100.00
2019-03-22T07:00:15.235Z,100.00
2019-03-22T07:03:19.614Z,100.00
2019-03-22T07:06:23.953Z,100.00
2019-03-22T07:09:28.328Z,100.00
2019-03-22T07:12:32.710Z,100.00
2019-03-22T07:15:37.116Z,100.00
2019-03-22T07:18:41.480Z,100.00
2019-03-22T07:21:45.836Z,100.00
2019-03-22T07:24:50.215Z,100.00
2019-03-22T07:27:54.545Z,100.00
2019-03-22T07:30:59.084Z,100.00
2019-03-22T07:34:03.521Z,100.00
2019-03-22T07:37:07.885Z,100.00
2019-03-22T07:40:13.178Z,100.00
2019-03-22T07:43:17.541Z,100.00
2019-03-22T07:46:21.898Z,100.00
2019-03-22T07:49:26.231Z,100.00
2019-03-22T07:52:30.582Z,100.00
2019-03-22T07:55:34.942Z,100.00
2019-03-22T07:58:39.316Z,100.00
2019-03-22T08:01:43.644Z,100.00
2019-03-22T08:04:47.988Z,100.00
2019-03-22T08:07:52.334Z,100.00
2019-03-22T08:10:56.713Z,100.00
2019-03-22T08:14:01.077Z,100.00
2019-03-22T08:17:05.579Z,100.00
2019-03-22T08:20:10.059Z,100.00
2019-03-22T08:23:22.211Z,100.00
2019-03-22T08:26:26.556Z,100.00
2019-03-22T08:29:30.998Z,100.00
2019-03-22T08:32:35.439Z,100.00
2019-03-22T08:35:39.767Z,100.00
2019-03-22T08:38:44.174Z,100.00
2019-03-22T08:41:48.566Z,100.00
2019-03-22T08:44:52.886Z,100.00
2019-03-22T08:47:57.284Z,100.00
2019-03-22T08:51:01.694Z,100.00
2019-03-22T08:54:06.395Z,100.00
2019-03-22T08:57:10.815Z,100.00
2019-03-22T09:00:15.516Z,100.00
2019-03-22T09:03:20.202Z,100.00
2019-03-22T09:06:24.721Z,100.00
2019-03-22T09:09:40.986Z,100.00
2019-03-22T09:12:35.310Z,100.00
2019-03-22T09:15:41.620Z,100.00
2019-03-22T09:18:47.354Z,100.00
2019-03-22T09:21:51.872Z,100.00
2019-03-22T09:24:56.328Z,100.00
2019-03-22T09:28:00.810Z,100.00
2019-03-22T09:31:10.276Z,100.00
2019-03-22T09:34:11.698Z,100.00
2019-03-22T09:37:16.109Z,100.00
2019-03-22T09:40:20.770Z,100.00
2019-03-22T09:43:25.420Z,100.00
2019-03-22T09:46:29.839Z,100.00
2019-03-22T09:49:34.431Z,100.00
2019-03-22T09:52:39.116Z,100.00
2019-03-22T09:55:43.474Z,100.00
2019-03-22T09:58:47.832Z,100.00
2019-03-22T10:01:54.514Z,100.00
2019-03-22T10:04:58.885Z,100.00
2019-03-22T10:08:03.330Z,100.00
2019-03-22T10:11:07.760Z,100.00
2019-03-22T10:14:12.139Z,100.00
2019-03-22T10:17:16.504Z,100.00
2019-03-22T10:20:20.979Z,100.00
2019-03-22T10:23:27.194Z,100.00
2019-03-22T10:26:31.599Z,99.95
2019-03-22T10:29:35.958Z,100.00
2019-03-22T10:32:40.370Z,100.00
2019-03-22T10:35:44.794Z,100.00
2019-03-22T10:38:50.513Z,100.00
2019-03-22T10:41:55.127Z,100.00
2019-03-22T10:44:59.520Z,99.58
2019-03-22T10:48:03.986Z,99.48
2019-03-22T10:51:08.413Z,99.46
2019-03-22T10:54:12.716Z,99.28
2019-03-22T10:57:17.130Z,99.38
2019-03-22T11:00:22.145Z,99.31
2019-03-22T11:03:26.526Z,99.25
2019-03-22T11:06:30.986Z,99.36
2019-03-22T11:09:35.340Z,99.51
2019-03-22T11:12:39.716Z,99.50
2019-03-22T11:15:48.378Z,99.43
2019-03-22T11:18:50.162Z,99.16
2019-03-22T11:21:54.587Z,99.08
2019-03-22T11:24:58.949Z,98.92
2019-03-22T11:28:03.276Z,97.95
2019-03-22T11:31:07.731Z,98.11
2019-03-22T11:34:12.068Z,98.05
2019-03-22T11:37:16.568Z,97.72
2019-03-22T11:40:21.216Z,98.05
2019-03-22T11:43:25.722Z,97.15
2019-03-22T11:46:31.106Z,96.70
2019-03-22T11:49:35.599Z,96.46
2019-03-22T11:52:40.300Z,96.59
2019-03-22T11:55:44.789Z,97.01
2019-03-22T11:58:49.154Z,96.96
2019-03-22T12:01:53.634Z,97.11
2019-03-22T12:04:57.982Z,96.98
2019-03-22T12:08:02.496Z,96.18
2019-03-22T12:11:06.916Z,96.46
2019-03-22T12:14:11.319Z,96.30
2019-03-22T12:17:15.679Z,96.18
2019-03-22T12:20:20.457Z,95.26
2019-03-22T12:23:24.822Z,95.55
2019-03-22T12:26:29.149Z,95.14
2019-03-22T12:29:34.324Z,94.45
2019-03-22T12:32:38.850Z,94.97
2019-03-22T12:35:43.197Z,95.14
2019-03-22T12:38:47.629Z,95.15
2019-03-22T12:41:52.008Z,93.59
2019-03-22T12:44:56.411Z,93.98
2019-03-22T12:48:01.029Z,94.50
2019-03-22T12:51:05.578Z,93.88
2019-03-22T12:54:09.927Z,93.51
2019-03-22T12:57:14.363Z,93.59
2019-03-22T13:00:20.833Z,93.83
2019-03-22T13:03:25.204Z,93.09
2019-03-22T13:06:30.542Z,92.74
2019-03-22T13:09:34.880Z,93.28
2019-03-22T13:12:39.386Z,93.35
2019-03-22T13:15:43.686Z,93.61
2019-03-22T13:18:50.358Z,93.55
2019-03-22T13:21:54.212Z,93.48
2019-03-22T13:24:58.658Z,93.39
2019-03-22T13:28:03.151Z,92.97
2019-03-22T13:31:07.607Z,92.75
2019-03-22T13:34:13.666Z,92.39
2019-03-22T13:37:17.996Z,92.73
2019-03-22T13:40:22.350Z,92.64
2019-03-22T13:43:26.701Z,92.46
2019-03-22T13:46:39.915Z,92.54
2019-03-22T13:49:37.256Z,92.24
2019-03-22T13:52:41.602Z,92.24
2019-03-22T13:55:46.028Z,91.83
2019-03-22T13:58:50.412Z,90.51
2019-03-22T14:01:54.785Z,91.04
2019-03-22T14:04:59.160Z,90.85
2019-03-22T14:08:04.641Z,89.18
2019-03-22T14:11:09.084Z,88.88
2019-03-22T14:14:13.484Z,89.90
2019-03-22T14:17:18.099Z,89.95
2019-03-22T14:20:22.585Z,89.78
2019-03-22T14:23:26.940Z,90.07
2019-03-22T14:26:31.301Z,90.13
2019-03-22T14:29:35.773Z,89.53
2019-03-22T14:32:40.150Z,89.15
2019-03-22T14:35:44.644Z,89.35
2019-03-22T14:38:49.020Z,89.03
2019-03-22T14:41:53.410Z,88.65
2019-03-22T14:44:57.744Z,88.44
2019-03-22T14:48:02.139Z,88.87
2019-03-22T14:51:06.513Z,88.94
2019-03-22T14:54:10.908Z,89.06
2019-03-22T14:57:15.333Z,89.13
2019-03-22T15:00:19.869Z,89.07
2019-03-22T15:03:25.137Z,89.13
2019-03-22T15:06:29.509Z,88.72
2019-03-22T15:09:33.909Z,88.72
2019-03-22T15:12:38.337Z,89.00
2019-03-22T15:15:51.248Z,89.26
2019-03-22T15:19:17.682Z,89.12
2019-03-22T15:22:39.053Z,88.92
2019-03-22T15:26:04.167Z,87.50
2019-03-22T15:29:26.083Z,87.91
2019-03-22T15:32:49.471Z,88.15
2019-03-22T15:36:17.847Z,88.14
2019-03-22T15:39:39.879Z,87.93
2019-03-22T15:42:44.314Z,87.74
2019-03-22T15:45:48.827Z,87.47
2019-03-22T15:48:53.262Z,87.70
2019-03-22T15:51:57.703Z,87.99
2019-03-22T15:55:02.134Z,88.23
2019-03-22T15:58:06.736Z,88.30
2019-03-22T16:01:11.275Z,87.88
2019-03-22T16:04:15.935Z,87.98
2019-03-22T16:07:20.491Z,88.12
2019-03-22T16:10:24.870Z,88.35
2019-03-22T16:13:29.244Z,88.42
2019-03-22T16:16:33.743Z,88.20
2019-03-22T16:19:38.095Z,88.14
2019-03-22T16:22:42.511Z,88.09
2019-03-22T16:25:46.949Z,87.57
2019-03-22T16:28:51.363Z,87.41
2019-03-22T16:31:55.731Z,87.56
2019-03-22T16:35:00.117Z,87.17
2019-03-22T16:38:04.623Z,87.26
2019-03-22T16:41:08.987Z,87.37
2019-03-22T16:44:13.381Z,87.29
2019-03-22T16:47:17.879Z,87.32
2019-03-22T16:50:24.509Z,87.36
2019-03-22T16:53:28.944Z,87.40
2019-03-22T16:56:34.551Z,87.44
2019-03-22T16:59:38.947Z,87.55
2019-03-22T17:02:43.435Z,87.76
2019-03-22T17:05:47.906Z,87.89
2019-03-22T17:08:52.254Z,88.20
2019-03-22T17:11:56.769Z,88.49
2019-03-22T17:15:01.130Z,89.04
2019-03-22T17:18:06.122Z,89.38
2019-03-22T17:21:10.471Z,89.58
2019-03-22T17:24:14.887Z,90.31
2019-03-22T17:27:19.274Z,90.29
2019-03-22T17:30:23.691Z,90.35
2019-03-22T17:33:28.059Z,90.53
2019-03-22T17:36:32.404Z,90.85
2019-03-22T17:39:36.759Z,91.02
2019-03-22T17:42:41.126Z,91.18
2019-03-22T17:45:45.469Z,91.54
2019-03-22T17:48:49.808Z,91.63
2019-03-22T17:51:54.187Z,91.72
2019-03-22T17:54:58.549Z,91.89
2019-03-22T17:58:02.970Z,92.04
2019-03-22T18:01:07.429Z,92.37
2019-03-22T18:04:11.879Z,92.53
2019-03-22T18:07:16.211Z,92.68
2019-03-22T18:10:20.665Z,92.83
2019-03-22T18:13:25.021Z,92.93
2019-03-22T18:16:29.435Z,92.94
2019-03-22T18:19:33.815Z,93.22
2019-03-22T18:22:38.217Z,93.21
2019-03-22T18:25:42.585Z,93.30
2019-03-22T18:28:47.010Z,93.34
2019-03-22T18:31:51.385Z,93.37
2019-03-22T18:34:55.728Z,93.46
2019-03-22T18:38:00.078Z,93.59
2019-03-22T18:41:04.441Z,93.60
2019-03-22T18:44:08.751Z,93.81
2019-03-22T18:47:13.123Z,93.97
2019-03-22T18:50:17.701Z,94.03
2019-03-22T18:53:22.073Z,94.02
2019-03-22T18:56:26.412Z,93.97
2019-03-22T18:59:30.769Z,94.02
2019-03-22T19:02:35.215Z,94.17
2019-03-22T19:05:39.600Z,94.22
2019-03-22T19:08:43.940Z,94.41
2019-03-22T19:11:48.286Z,94.60
2019-03-22T19:14:52.693Z,94.71
2019-03-22T19:17:57.022Z,94.65
2019-03-22T19:21:01.393Z,94.68
2019-03-22T19:24:05.827Z,94.67
2019-03-22T19:27:10.202Z,94.73
2019-03-22T19:30:14.800Z,94.76
2019-03-22T19:33:19.146Z,94.73
2019-03-22T19:36:23.505Z,94.83
2019-03-22T19:39:27.865Z,94.84
2019-03-22T19:42:32.209Z,95.01
2019-03-22T19:45:36.555Z,95.06
2019-03-22T19:48:40.908Z,95.10
2019-03-22T19:51:45.339Z,95.22
2019-03-22T19:54:49.721Z,95.31
2019-03-22T19:57:54.092Z,95.59
2019-03-22T20:00:58.498Z,95.57
2019-03-22T20:04:02.852Z,95.60
2019-03-22T20:07:07.295Z,95.57
2019-03-22T20:10:12.151Z,95.59
2019-03-22T20:13:16.491Z,95.72
2019-03-22T20:16:20.839Z,95.71
2019-03-22T20:19:25.201Z,95.71
2019-03-22T20:22:29.552Z,95.77
2019-03-22T20:25:33.910Z,95.99
2019-03-22T20:28:38.262Z,96.00
2019-03-22T20:31:42.651Z,96.08
2019-03-22T20:34:50.143Z,96.43
2019-03-22T20:37:54.491Z,96.39
2019-03-22T20:40:58.840Z,96.33
2019-03-22T20:44:03.239Z,96.38
2019-03-22T20:47:07.591Z,96.34
2019-03-22T20:50:12.685Z,96.36
2019-03-22T20:53:17.216Z,96.37
2019-03-22T20:56:21.594Z,96.31
2019-03-22T20:59:25.928Z,96.30
2019-03-22T21:02:30.281Z,96.28
2019-03-22T21:05:34.645Z,96.24
2019-03-22T21:08:39.073Z,96.29
2019-03-22T21:11:43.414Z,96.35
2019-03-22T21:14:47.777Z,96.39
2019-03-22T21:17:52.117Z,96.42
2019-03-22T21:20:56.466Z,96.35
2019-03-22T21:24:00.813Z,96.36
2019-03-22T21:27:15.132Z,96.39
2019-03-22T21:30:11.738Z,96.40
2019-03-22T21:33:16.085Z,96.40
2019-03-22T21:36:20.503Z,96.35
2019-03-22T21:39:24.868Z,96.36
2019-03-22T21:42:29.228Z,96.37
2019-03-22T21:45:33.596Z,96.42
2019-03-22T21:48:37.945Z,96.47
2019-03-22T21:51:42.296Z,96.50
2019-03-22T21:54:46.644Z,96.59
2019-03-22T21:57:51.126Z,96.64
2019-03-22T22:00:55.547Z,96.70
2019-03-22T22:03:59.910Z,96.69
2019-03-22T22:07:04.256Z,96.67
2019-03-22T22:10:10.191Z,96.79
2019-03-22T22:13:14.545Z,96.81
2019-03-22T22:16:19.013Z,96.71
2019-03-22T22:19:23.367Z,96.66
2019-03-22T22:22:27.715Z,96.55
2019-03-22T22:25:32.146Z,96.68
2019-03-22T22:28:36.510Z,97.03
2019-03-22T22:31:40.922Z,97.16
2019-03-22T22:34:45.263Z,97.24
2019-03-22T22:37:49.623Z,97.37
2019-03-22T22:40:53.983Z,97.84
2019-03-22T22:43:58.349Z,98.38
2019-03-22T22:47:02.726Z,96.11
2019-03-22T22:50:08.185Z,95.10
2019-03-22T22:53:12.650Z,94.93
2019-03-22T22:56:17.093Z,95.85
2019-03-22T22:59:21.507Z,96.60
2019-03-22T23:02:25.865Z,96.89
2019-03-22T23:05:30.257Z,96.58
2019-03-22T23:08:34.639Z,95.99
2019-03-22T23:11:39.060Z,95.96
2019-03-22T23:14:43.495Z,94.92
2019-03-22T23:17:47.846Z,95.02
2019-03-22T23:20:52.276Z,95.22
2019-03-22T23:23:56.643Z,96.07
2019-03-22T23:27:01.002Z,96.27
2019-03-22T23:30:05.999Z,96.20
2019-03-22T23:33:10.420Z,96.36
2019-03-22T23:36:20.085Z,97.42
2019-03-22T23:39:20.940Z,97.68
2019-03-22T23:42:25.284Z,96.42
2019-03-22T23:45:29.648Z,97.50
2019-03-22T23:48:33.972Z,98.00
2019-03-22T23:51:38.323Z,97.67
2019-03-22T23:54:42.695Z,98.09
2019-03-22T23:57:47.229Z,97.89
